Flight Track Log - Related Links

Times and Time Zones

All times are in EDT time to prevent confusion due to time zone crossing. See the N8823Y flight status page for this flight to view local times or setup timezone preferences in your user account.

Time Position Orientation Groundspeed Altitude Reporting Facility
EDT Latitude Longitude Course Direction KTS MPH feet Rate Location/Type
Sat 04:26:01 PM 38.9500 -77.5000 38° Northeast 92 106 1,500  Level Potomac TRACON
Sat 04:27:00 PM 38.9667 -77.5333 303° West 117 135 2,100 303 Climbing Potomac TRACON
Sat 04:28:00 PM 39.0000 -77.5500 339° North 134 154 2,100  Level Potomac TRACON
Sat 04:29:01 PM 39.0333 -77.5500 360° North 135 155 2,100 -50 Level Potomac TRACON
Sat 04:30:01 PM 39.0667 -77.5500 360° North 146 168 2,000 -50 Descending Potomac TRACON
Sat 04:31:00 PM 39.0831 -77.3002 38° Northeast  Level FlightAware Approximate
Sat 04:31:02 PM 39.0833 -77.5000 67° East 144 166 2,000  Level Potomac TRACON
Sat 04:32:02 PM 39.1167 -77.4667 38° Northeast 139 160 2,100  Climbing Potomac TRACON
Sat 04:33:08 PM 39.1333 -77.4167 67° East 147 169 2,000 -48 Descending Potomac TRACON
Sat 04:34:08 PM 39.1667 -77.3667 49° Northeast 144 166 2,000  Level Potomac TRACON
Sat 04:35:03 PM 39.1833 -77.3333 57° Northeast 141 162 2,000  Level Potomac TRACON
Sat 04:36:02 PM 39.2000 -77.2833 67° East 147 169 2,000  Level Potomac TRACON
Sat 04:37:02 PM 39.2167 -77.2333 67° East 144 166 2,000  Level Potomac TRACON
Sat 04:38:02 PM 39.2333 -77.2000 57° Northeast 145 167 2,000  Level Potomac TRACON
Sat 04:39:02 PM 39.2667 -77.1500 49° Northeast 143 165 2,000  Level Potomac TRACON
Sat 04:39:58 PM 39.2717 -77.1244 76° East 145 167 2,000  Level Washington Center
Sat 04:40:59 PM 39.2972 -77.0722 58° Northeast 145 167 2,000 48 Level Washington Center
Sat 04:42:03 PM 39.3203 -77.0283 56° Northeast 145 167 2,100  Climbing Washington Center
Sat 04:43:06 PM 39.3411 -76.9836 59° Northeast 145 167 2,000 -48 Descending Washington Center
Sat 04:44:07 PM 39.3644 -76.9347 58° Northeast 145 167 2,000  Level Washington Center

Login

Don't have an account? Register now (free) for customized features, flight alerts, and more!